Puerto Banus, Marbella

>

This is an optional block (switch it off / on) in the settings - file ($SITE['banners'] = false;)

You can display ads, any other important text or photo’s using text / html or PHP code.

You can place one or more at the top and or bottom and it can all be different for content / size .



Meteosat more information blitzortung!


Radar lluvias  rain snow radar


Visita nuestra red de sitios de meteo:

Documentation for the template used

MeteoibericaRed estaciones Meteorologicas

MeteoclimaticRed estaciones Meteorologicas



Sin Advertencias climatologicas .En este momento tenemos Nivel Verde.    No hay Alarmas

Informes METAR proximidad

   
EBAW - Antwerp
Actualización: 19-01-2018 02:50
Parcialmente Nublado  
Parcialmente Nublado  
   Viento: West 16.7 km/h
Viento: West 16.7 km/h
Temperatura: 4°C
Térmica: 0°C
Punto de rocío: 2°C
Humedad: 87%
Baromètro: 1005 hPa
Nublado: Parcialmente Nublado
Visibilidad: More than 10 km
detalles de la nube: Parcialmente Nublado 2400 ft
EBAW 190150Z AUTO 26009KT 9999 // SCT024/// 04/02 Q1005
EBLG - Liège
Actualización: 19-01-2018 02:50
Parcialmente Nublado  
Parcialmente Nublado  
   Viento: WSW 18.5 km/h
Viento: WSW 18.5 km/h
Temperatura: 2°C
Térmica: -2°C
Punto de rocío: 1°C
Humedad: 93%
Baromètro: 1005 hPa
Nublado: Parcialmente Nublado
Visibilidad: More than 10 km
detalles de la nube: Parcialmente Nublado 2500 ft
EBLG 190150Z 24010KT 9999 SCT025 02/01 Q1005 NOSIG
EBCV - Mons/Bergen
Actualización: 19-01-2018 02:25
Claros  
Claros  
   Viento: West 20.4 km/h
Viento: West 20.4 km/h
Temperatura: 4°C
Térmica: 0°C
Punto de rocío: 2°C
Humedad: 87%
Baromètro: 1006 hPa
Nublado: Claros
Visibilidad: More than 10 km
detalles de la nube: Claros
EBCV 190125Z AUTO 26011KT 9999 NCD 04/02 Q1006 BLU
EHBK - Maastricht
Actualización: 19-01-2018 02:25
Parcialmente nublado  
Parcialmente nublado  
   Viento: SW 18.5 km/h
Viento: SW 18.5 km/h
Temperatura: 2°C
Térmica: -2°C
Punto de rocío: 2°C
Humedad: 100%
Baromètro: 1004 hPa
Nublado: Parcialmente nublado
Visibilidad: More than 10 km
detalles de la nube: Nubes dispersas 800 ft,
Parcialmente Nublado 900 ft,
Parcialmente nublado 1000 ft
EHBK 190125Z AUTO 22010KT 190V250 9999 FEW008 SCT009 BKN010 02/02 Q1004
ELLX - Luxemburg
Actualización: 19-01-2018 02:50
Parcialmente Nublado  
Parcialmente Nublado  
   Viento: West 25.9 km/h
Viento: West 25.9 km/h
Temperatura: 3°C
Térmica: -2°C
Punto de rocío: 2°C
Humedad: 93%
Baromètro: 1005 hPa
Nublado: Parcialmente Nublado
Visibilidad: More than 10 km
detalles de la nube: Nubes dispersas 1200 ft,
Parcialmente Nublado 5200 ft
ELLX 190150Z AUTO 27014KT 9999 FEW012/// SCT052/// 03/02 Q1005 NOSIG
EBOS - Oostende
Actualización: 19-01-2018 02:50
Parcialmente nublado  
Parcialmente nublado  
   Viento: WNW 38.9 km/h
Viento: WNW 38.9 km/h
Temperatura: 5°C
Térmica: -1°C
Punto de rocío: 1°C
Humedad: 76%
Baromètro: 1006 hPa
Nublado: Parcialmente nublado
Visibilidad: More than 10 km
detalles de la nube: Parcialmente Nublado 2000 ft,
Parcialmente nublado 4500 ft
EBOS 190150Z 29021KT 9999 SCT020 BKN045 05/01 Q1006 TEMPO 28020G35KT 4000 SHRA SCT008 BKN014CB

Guión original por  Saratoga-weather.org Adaptado para la plantilla por  Weerstation Leuven

Usted encontrará nuestra información del tiempo también en:

Weather Underground

Iberian Peninsula Weather Network